Rosati, Missouri
Current Conditions -  °F | °C
As of 4:37 AM on Monday 22 Dec 2014 (Local Time) from KVIH Reporting Station
Overcast Overcast  
Wind Chill: 35°   Ceiling: 2000
Heat Index: 41°   Visibility: 9mi
Dew Point: 36°   Wind: 9mph
Humidity: 82%   Direction: 130°SE
Pressure: 29.71"   Gusts: NA
Location:  37.9936°N, 91.5964°W
Report Text: KVIH 221037Z AUTO 13008KT 9SM BKN020 OVC031 05/02 A2971 RMK AO2 T00500022
Loading
Personal Weather Stations






























Interactive Weather Map New forecast layout! Learn more

10-Day Weather Forecast

Advertisements
Track Severe Weather on mobile